sensor_id;sensor_type;location;lat;lon;timestamp;P1;durP1;ratioP1;P2;durP2;ratioP2
24357;SDS011;13668;52.154;5.580;2022-12-29T00:01:53;2.80;;;2.60;;
24357;SDS011;13668;52.154;5.580;2022-12-29T00:04:20;4.13;;;2.60;;
24357;SDS011;13668;52.154;5.580;2022-12-29T00:06:46;2.95;;;2.75;;
24357;SDS011;13668;52.154;5.580;2022-12-29T00:09:13;3.10;;;2.80;;
24357;SDS011;13668;52.154;5.580;2022-12-29T00:11:39;3.40;;;2.65;;
24357;SDS011;13668;52.154;5.580;2022-12-29T00:14:06;3.22;;;2.35;;
24357;SDS011;13668;52.154;5.580;2022-12-29T00:16:53;2.75;;;2.53;;
24357;SDS011;13668;52.154;5.580;2022-12-29T00:19:22;2.58;;;2.45;;
24357;SDS011;13668;52.154;5.580;2022-12-29T00:22:10;2.42;;;2.22;;
24357;SDS011;13668;52.154;5.580;2022-12-29T00:24:55;3.40;;;2.33;;
24357;SDS011;13668;52.154;5.580;2022-12-29T00:27:40;2.50;;;2.30;;
24357;SDS011;13668;52.154;5.580;2022-12-29T00:30:24;2.25;;;2.05;;
24357;SDS011;13668;52.154;5.580;2022-12-29T00:33:13;1.98;;;1.85;;
24357;SDS011;13668;52.154;5.580;2022-12-29T00:36:03;3.50;;;2.30;;
24357;SDS011;13668;52.154;5.580;2022-12-29T00:38:31;3.10;;;1.95;;
24357;SDS011;13668;52.154;5.580;2022-12-29T00:41:16;2.30;;;2.08;;
24357;SDS011;13668;52.154;5.580;2022-12-29T00:44:01;2.58;;;2.25;;
24357;SDS011;13668;52.154;5.580;2022-12-29T00:46:30;4.38;;;2.30;;
24357;SDS011;13668;52.154;5.580;2022-12-29T00:48:57;2.10;;;1.85;;
24357;SDS011;13668;52.154;5.580;2022-12-29T00:51:42;2.70;;;2.35;;
24357;SDS011;13668;52.154;5.580;2022-12-29T00:54:08;2.80;;;2.50;;
24357;SDS011;13668;52.154;5.580;2022-12-29T00:56:34;3.22;;;2.22;;
24357;SDS011;13668;52.154;5.580;2022-12-29T00:59:01;2.30;;;2.08;;
24357;SDS011;13668;52.154;5.580;2022-12-29T01:01:27;3.03;;;2.10;;
24357;SDS011;13668;52.154;5.580;2022-12-29T01:03:53;2.25;;;2.03;;
24357;SDS011;13668;52.154;5.580;2022-12-29T01:06:19;2.47;;;2.22;;
24357;SDS011;13668;52.154;5.580;2022-12-29T01:08:45;2.90;;;2.30;;
24357;SDS011;13668;52.154;5.580;2022-12-29T01:11:12;2.72;;;2.53;;
24357;SDS011;13668;52.154;5.580;2022-12-29T01:13:38;2.85;;;2.17;;
24357;SDS011;13668;52.154;5.580;2022-12-29T01:16:06;2.22;;;2.00;;
24357;SDS011;13668;52.154;5.580;2022-12-29T01:18:32;2.03;;;1.70;;
24357;SDS011;13668;52.154;5.580;2022-12-29T01:20:59;2.03;;;1.70;;
24357;SDS011;13668;52.154;5.580;2022-12-29T01:23:25;2.80;;;1.60;;
24357;SDS011;13668;52.154;5.580;2022-12-29T01:25:51;2.10;;;1.60;;
24357;SDS011;13668;52.154;5.580;2022-12-29T01:28:17;1.73;;;1.60;;
24357;SDS011;13668;52.154;5.580;2022-12-29T01:30:43;1.88;;;1.75;;
24357;SDS011;13668;52.154;5.580;2022-12-29T01:33:09;1.60;;;1.48;;
24357;SDS011;13668;52.154;5.580;2022-12-29T01:35:35;2.88;;;1.45;;
24357;SDS011;13668;52.154;5.580;2022-12-29T01:38:01;2.03;;;1.60;;
24357;SDS011;13668;52.154;5.580;2022-12-29T01:40:27;1.50;;;1.40;;
24357;SDS011;13668;52.154;5.580;2022-12-29T01:42:53;2.90;;;1.80;;
24357;SDS011;13668;52.154;5.580;2022-12-29T01:45:20;1.50;;;1.40;;
24357;SDS011;13668;52.154;5.580;2022-12-29T01:47:48;1.90;;;1.75;;
24357;SDS011;13668;52.154;5.580;2022-12-29T01:50:35;2.55;;;1.90;;
24357;SDS011;13668;52.154;5.580;2022-12-29T01:53:09;2.30;;;1.77;;
24357;SDS011;13668;52.154;5.580;2022-12-29T01:55:40;3.20;;;1.65;;
24357;SDS011;13668;52.154;5.580;2022-12-29T01:58:07;3.35;;;2.00;;
24357;SDS011;13668;52.154;5.580;2022-12-29T02:00:34;2.20;;;1.80;;
24357;SDS011;13668;52.154;5.580;2022-12-29T02:03:01;2.20;;;2.00;;
24357;SDS011;13668;52.154;5.580;2022-12-29T02:08:05;2.92;;;2.13;;
24357;SDS011;13668;52.154;5.580;2022-12-29T02:10:34;2.40;;;2.20;;
24357;SDS011;13668;52.154;5.580;2022-12-29T02:13:00;3.58;;;2.33;;
24357;SDS011;13668;52.154;5.580;2022-12-29T02:21:30;2.78;;;2.50;;
24357;SDS011;13668;52.154;5.580;2022-12-29T02:26:35;2.63;;;2.35;;
24357;SDS011;13668;52.154;5.580;2022-12-29T02:31:35;2.05;;;1.95;;
24357;SDS011;13668;52.154;5.580;2022-12-29T02:36:43;2.78;;;1.60;;
24357;SDS011;13668;52.154;5.580;2022-12-29T02:47:22;2.10;;;1.40;;
24357;SDS011;13668;52.154;5.580;2022-12-29T02:49:51;2.00;;;1.27;;
24357;SDS011;13668;52.154;5.580;2022-12-29T02:52:22;3.05;;;1.17;;
24357;SDS011;13668;52.154;5.580;2022-12-29T02:54:52;2.83;;;1.08;;
24357;SDS011;13668;52.154;5.580;2022-12-29T02:59:58;2.10;;;1.00;;
24357;SDS011;13668;52.154;5.580;2022-12-29T03:07:57;1.00;;;0.90;;
24357;SDS011;13668;52.154;5.580;2022-12-29T03:18:57;1.15;;;1.10;;
24357;SDS011;13668;52.154;5.580;2022-12-29T03:24:11;2.75;;;1.33;;
24357;SDS011;13668;52.154;5.580;2022-12-29T03:26:37;2.47;;;1.52;;
24357;SDS011;13668;52.154;5.580;2022-12-29T03:29:04;1.85;;;1.35;;
24357;SDS011;13668;52.154;5.580;2022-12-29T03:31:31;1.42;;;1.27;;
24357;SDS011;13668;52.154;5.580;2022-12-29T03:33:57;1.35;;;1.25;;
24357;SDS011;13668;52.154;5.580;2022-12-29T03:36:26;2.40;;;1.13;;
24357;SDS011;13668;52.154;5.580;2022-12-29T03:38:57;4.47;;;1.88;;
24357;SDS011;13668;52.154;5.580;2022-12-29T03:41:24;3.00;;;1.33;;
24357;SDS011;13668;52.154;5.580;2022-12-29T03:43:51;3.22;;;1.30;;
24357;SDS011;13668;52.154;5.580;2022-12-29T03:46:17;2.63;;;1.33;;
24357;SDS011;13668;52.154;5.580;2022-12-29T03:48:46;1.95;;;1.50;;
24357;SDS011;13668;52.154;5.580;2022-12-29T03:51:12;2.90;;;1.50;;
24357;SDS011;13668;52.154;5.580;2022-12-29T03:53:38;2.72;;;1.35;;
24357;SDS011;13668;52.154;5.580;2022-12-29T03:56:04;1.55;;;1.00;;
24357;SDS011;13668;52.154;5.580;2022-12-29T03:58:30;2.85;;;1.25;;
24357;SDS011;13668;52.154;5.580;2022-12-29T04:00:56;2.67;;;1.20;;
24357;SDS011;13668;52.154;5.580;2022-12-29T04:03:23;1.75;;;1.20;;
24357;SDS011;13668;52.154;5.580;2022-12-29T04:05:49;2.78;;;1.23;;
24357;SDS011;13668;52.154;5.580;2022-12-29T04:08:15;1.33;;;0.85;;
24357;SDS011;13668;52.154;5.580;2022-12-29T04:10:41;2.25;;;1.35;;
24357;SDS011;13668;52.154;5.580;2022-12-29T04:13:07;3.58;;;1.50;;
24357;SDS011;13668;52.154;5.580;2022-12-29T04:15:33;6.00;;;1.35;;
24357;SDS011;13668;52.154;5.580;2022-12-29T04:18:02;2.13;;;1.10;;
24357;SDS011;13668;52.154;5.580;2022-12-29T04:20:28;2.35;;;1.38;;
24357;SDS011;13668;52.154;5.580;2022-12-29T04:23:13;1.73;;;1.05;;
24357;SDS011;13668;52.154;5.580;2022-12-29T04:25:39;2.65;;;1.50;;
24357;SDS011;13668;52.154;5.580;2022-12-29T04:28:05;5.15;;;1.50;;
24357;SDS011;13668;52.154;5.580;2022-12-29T04:30:32;1.73;;;1.42;;
24357;SDS011;13668;52.154;5.580;2022-12-29T04:32:58;3.15;;;1.10;;
24357;SDS011;13668;52.154;5.580;2022-12-29T04:35:24;3.70;;;1.60;;
24357;SDS011;13668;52.154;5.580;2022-12-29T04:37:50;3.25;;;1.48;;
24357;SDS011;13668;52.154;5.580;2022-12-29T04:40:16;2.97;;;1.50;;
24357;SDS011;13668;52.154;5.580;2022-12-29T04:42:42;1.58;;;1.15;;
24357;SDS011;13668;52.154;5.580;2022-12-29T04:45:08;4.50;;;1.23;;
24357;SDS011;13668;52.154;5.580;2022-12-29T04:47:37;5.65;;;1.30;;
24357;SDS011;13668;52.154;5.580;2022-12-29T04:50:04;4.95;;;1.40;;
24357;SDS011;13668;52.154;5.580;2022-12-29T04:52:37;5.93;;;1.58;;
24357;SDS011;13668;52.154;5.580;2022-12-29T04:55:03;6.57;;;1.15;;
24357;SDS011;13668;52.154;5.580;2022-12-29T04:57:29;5.10;;;1.30;;
24357;SDS011;13668;52.154;5.580;2022-12-29T04:59:55;3.00;;;1.02;;
24357;SDS011;13668;52.154;5.580;2022-12-29T05:02:21;7.53;;;1.35;;
24357;SDS011;13668;52.154;5.580;2022-12-29T05:04:47;5.40;;;1.83;;
24357;SDS011;13668;52.154;5.580;2022-12-29T05:07:13;8.55;;;1.73;;
24357;SDS011;13668;52.154;5.580;2022-12-29T05:09:39;5.72;;;1.05;;
24357;SDS011;13668;52.154;5.580;2022-12-29T05:12:05;8.43;;;1.77;;
24357;SDS011;13668;52.154;5.580;2022-12-29T05:14:31;11.38;;;1.75;;
24357;SDS011;13668;52.154;5.580;2022-12-29T05:16:57;8.63;;;1.50;;
24357;SDS011;13668;52.154;5.580;2022-12-29T05:19:23;6.53;;;1.90;;
24357;SDS011;13668;52.154;5.580;2022-12-29T05:21:49;10.85;;;1.63;;
24357;SDS011;13668;52.154;5.580;2022-12-29T05:24:15;3.47;;;1.23;;
24357;SDS011;13668;52.154;5.580;2022-12-29T05:26:41;7.18;;;1.50;;
24357;SDS011;13668;52.154;5.580;2022-12-29T05:29:07;6.75;;;1.75;;
24357;SDS011;13668;52.154;5.580;2022-12-29T05:31:33;10.30;;;1.77;;
24357;SDS011;13668;52.154;5.580;2022-12-29T05:34:00;9.80;;;1.77;;
24357;SDS011;13668;52.154;5.580;2022-12-29T05:36:26;6.72;;;2.00;;
24357;SDS011;13668;52.154;5.580;2022-12-29T05:38:52;5.53;;;1.23;;
24357;SDS011;13668;52.154;5.580;2022-12-29T05:41:18;9.85;;;1.58;;
24357;SDS011;13668;52.154;5.580;2022-12-29T05:43:44;5.75;;;1.35;;
24357;SDS011;13668;52.154;5.580;2022-12-29T05:46:10;5.50;;;1.50;;
24357;SDS011;13668;52.154;5.580;2022-12-29T05:48:36;10.07;;;1.50;;
24357;SDS011;13668;52.154;5.580;2022-12-29T05:51:02;9.00;;;1.50;;
24357;SDS011;13668;52.154;5.580;2022-12-29T05:53:28;8.43;;;2.03;;
24357;SDS011;13668;52.154;5.580;2022-12-29T05:55:54;10.90;;;1.48;;
24357;SDS011;13668;52.154;5.580;2022-12-29T05:58:20;5.72;;;1.63;;
24357;SDS011;13668;52.154;5.580;2022-12-29T06:00:46;6.07;;;1.45;;
24357;SDS011;13668;52.154;5.580;2022-12-29T06:03:12;5.95;;;1.23;;
24357;SDS011;13668;52.154;5.580;2022-12-29T06:05:39;7.97;;;1.83;;
24357;SDS011;13668;52.154;5.580;2022-12-29T06:08:05;7.38;;;2.13;;
24357;SDS011;13668;52.154;5.580;2022-12-29T06:10:31;5.13;;;1.30;;
24357;SDS011;13668;52.154;5.580;2022-12-29T06:12:57;8.02;;;1.85;;
24357;SDS011;13668;52.154;5.580;2022-12-29T06:15:23;4.43;;;1.40;;
24357;SDS011;13668;52.154;5.580;2022-12-29T06:17:49;8.20;;;1.50;;
24357;SDS011;13668;52.154;5.580;2022-12-29T06:20:15;11.05;;;2.88;;
24357;SDS011;13668;52.154;5.580;2022-12-29T06:22:41;11.35;;;1.90;;
24357;SDS011;13668;52.154;5.580;2022-12-29T06:25:08;7.90;;;1.52;;
24357;SDS011;13668;52.154;5.580;2022-12-29T06:27:34;6.78;;;1.73;;
24357;SDS011;13668;52.154;5.580;2022-12-29T06:30:00;7.72;;;1.88;;
24357;SDS011;13668;52.154;5.580;2022-12-29T06:32:26;10.10;;;1.63;;
24357;SDS011;13668;52.154;5.580;2022-12-29T06:34:52;9.25;;;2.25;;
24357;SDS011;13668;52.154;5.580;2022-12-29T06:37:18;8.68;;;1.92;;
24357;SDS011;13668;52.154;5.580;2022-12-29T06:39:44;6.38;;;1.48;;
24357;SDS011;13668;52.154;5.580;2022-12-29T06:42:10;5.32;;;2.00;;
24357;SDS011;13668;52.154;5.580;2022-12-29T06:44:36;9.07;;;1.80;;
24357;SDS011;13668;52.154;5.580;2022-12-29T06:47:02;12.10;;;2.08;;
24357;SDS011;13668;52.154;5.580;2022-12-29T06:49:28;13.40;;;3.08;;
24357;SDS011;13668;52.154;5.580;2022-12-29T06:51:54;7.47;;;1.50;;
24357;SDS011;13668;52.154;5.580;2022-12-29T06:54:20;10.02;;;1.63;;
24357;SDS011;13668;52.154;5.580;2022-12-29T06:56:46;9.88;;;1.60;;
24357;SDS011;13668;52.154;5.580;2022-12-29T06:59:12;9.52;;;3.33;;
24357;SDS011;13668;52.154;5.580;2022-12-29T07:01:38;11.30;;;1.85;;
24357;SDS011;13668;52.154;5.580;2022-12-29T07:04:04;8.88;;;1.70;;
24357;SDS011;13668;52.154;5.580;2022-12-29T07:06:30;4.93;;;1.45;;
24357;SDS011;13668;52.154;5.580;2022-12-29T07:08:56;8.65;;;1.67;;
24357;SDS011;13668;52.154;5.580;2022-12-29T07:11:22;3.78;;;1.67;;
24357;SDS011;13668;52.154;5.580;2022-12-29T07:13:48;9.00;;;1.80;;
24357;SDS011;13668;52.154;5.580;2022-12-29T07:16:15;7.50;;;1.30;;
24357;SDS011;13668;52.154;5.580;2022-12-29T07:18:41;10.13;;;1.92;;
24357;SDS011;13668;52.154;5.580;2022-12-29T07:21:07;7.57;;;1.60;;
24357;SDS011;13668;52.154;5.580;2022-12-29T07:23:33;5.90;;;1.50;;
24357;SDS011;13668;52.154;5.580;2022-12-29T07:26:03;11.57;;;1.70;;
24357;SDS011;13668;52.154;5.580;2022-12-29T07:28:29;7.70;;;2.05;;
24357;SDS011;13668;52.154;5.580;2022-12-29T07:30:57;10.38;;;1.75;;
24357;SDS011;13668;52.154;5.580;2022-12-29T07:33:23;8.65;;;1.58;;
24357;SDS011;13668;52.154;5.580;2022-12-29T07:35:49;7.85;;;2.00;;
24357;SDS011;13668;52.154;5.580;2022-12-29T07:38:15;9.40;;;2.25;;
24357;SDS011;13668;52.154;5.580;2022-12-29T07:40:41;11.00;;;2.28;;
24357;SDS011;13668;52.154;5.580;2022-12-29T07:43:07;10.13;;;1.80;;
24357;SDS011;13668;52.154;5.580;2022-12-29T07:45:33;6.95;;;1.85;;
24357;SDS011;13668;52.154;5.580;2022-12-29T07:47:59;9.02;;;1.90;;
24357;SDS011;13668;52.154;5.580;2022-12-29T07:50:27;6.90;;;1.70;;
24357;SDS011;13668;52.154;5.580;2022-12-29T07:52:53;6.38;;;2.15;;
24357;SDS011;13668;52.154;5.580;2022-12-29T07:55:19;6.55;;;1.63;;
24357;SDS011;13668;52.154;5.580;2022-12-29T07:57:45;10.25;;;1.85;;
24357;SDS011;13668;52.154;5.580;2022-12-29T08:00:11;6.57;;;1.80;;
24357;SDS011;13668;52.154;5.580;2022-12-29T08:02:37;9.05;;;2.03;;
24357;SDS011;13668;52.154;5.580;2022-12-29T08:05:03;6.75;;;1.85;;
24357;SDS011;13668;52.154;5.580;2022-12-29T08:07:29;5.32;;;2.42;;
24357;SDS011;13668;52.154;5.580;2022-12-29T08:09:55;7.82;;;2.38;;
24357;SDS011;13668;52.154;5.580;2022-12-29T08:12:22;7.50;;;1.85;;
24357;SDS011;13668;52.154;5.580;2022-12-29T08:14:48;6.15;;;2.00;;
24357;SDS011;13668;52.154;5.580;2022-12-29T08:17:14;6.60;;;1.73;;
24357;SDS011;13668;52.154;5.580;2022-12-29T08:19:40;6.15;;;1.98;;
24357;SDS011;13668;52.154;5.580;2022-12-29T08:22:07;10.32;;;1.80;;
24357;SDS011;13668;52.154;5.580;2022-12-29T08:24:33;6.65;;;1.90;;
24357;SDS011;13668;52.154;5.580;2022-12-29T08:26:59;5.88;;;1.40;;
24357;SDS011;13668;52.154;5.580;2022-12-29T08:29:25;12.13;;;1.95;;
24357;SDS011;13668;52.154;5.580;2022-12-29T08:31:51;11.10;;;1.92;;
24357;SDS011;13668;52.154;5.580;2022-12-29T08:34:17;7.53;;;1.77;;
24357;SDS011;13668;52.154;5.580;2022-12-29T08:36:43;8.07;;;1.90;;
24357;SDS011;13668;52.154;5.580;2022-12-29T08:39:09;8.45;;;1.88;;
24357;SDS011;13668;52.154;5.580;2022-12-29T08:41:35;10.00;;;1.90;;
24357;SDS011;13668;52.154;5.580;2022-12-29T08:44:01;8.05;;;1.60;;
24357;SDS011;13668;52.154;5.580;2022-12-29T08:46:27;8.57;;;2.20;;
24357;SDS011;13668;52.154;5.580;2022-12-29T08:48:53;7.40;;;1.98;;
24357;SDS011;13668;52.154;5.580;2022-12-29T08:51:19;8.80;;;1.60;;
24357;SDS011;13668;52.154;5.580;2022-12-29T08:53:45;9.68;;;1.83;;
24357;SDS011;13668;52.154;5.580;2022-12-29T08:56:11;8.60;;;2.10;;
24357;SDS011;13668;52.154;5.580;2022-12-29T08:58:37;12.55;;;1.67;;
24357;SDS011;13668;52.154;5.580;2022-12-29T09:01:04;10.68;;;2.08;;
24357;SDS011;13668;52.154;5.580;2022-12-29T09:03:30;8.35;;;1.90;;
24357;SDS011;13668;52.154;5.580;2022-12-29T09:05:56;8.38;;;1.75;;
24357;SDS011;13668;52.154;5.580;2022-12-29T09:08:22;7.85;;;1.98;;
24357;SDS011;13668;52.154;5.580;2022-12-29T09:10:48;6.82;;;1.70;;
24357;SDS011;13668;52.154;5.580;2022-12-29T09:13:15;5.85;;;1.67;;
24357;SDS011;13668;52.154;5.580;2022-12-29T09:15:41;13.98;;;2.03;;
24357;SDS011;13668;52.154;5.580;2022-12-29T09:18:10;8.98;;;1.83;;
24357;SDS011;13668;52.154;5.580;2022-12-29T09:20:37;5.72;;;1.80;;
24357;SDS011;13668;52.154;5.580;2022-12-29T09:23:03;6.78;;;2.55;;
24357;SDS011;13668;52.154;5.580;2022-12-29T09:25:31;11.18;;;2.25;;
24357;SDS011;13668;52.154;5.580;2022-12-29T09:27:57;10.02;;;2.63;;
24357;SDS011;13668;52.154;5.580;2022-12-29T09:30:23;4.68;;;1.63;;
24357;SDS011;13668;52.154;5.580;2022-12-29T09:32:49;8.63;;;1.85;;
24357;SDS011;13668;52.154;5.580;2022-12-29T09:35:15;7.47;;;1.83;;
24357;SDS011;13668;52.154;5.580;2022-12-29T09:37:41;8.40;;;1.67;;
24357;SDS011;13668;52.154;5.580;2022-12-29T09:40:14;7.28;;;2.15;;
24357;SDS011;13668;52.154;5.580;2022-12-29T09:42:44;6.22;;;2.08;;
24357;SDS011;13668;52.154;5.580;2022-12-29T09:45:14;6.50;;;1.60;;
24357;SDS011;13668;52.154;5.580;2022-12-29T09:47:42;8.68;;;2.25;;
24357;SDS011;13668;52.154;5.580;2022-12-29T09:52:36;9.88;;;2.10;;
24357;SDS011;13668;52.154;5.580;2022-12-29T09:55:04;8.52;;;1.73;;
24357;SDS011;13668;52.154;5.580;2022-12-29T09:57:35;6.28;;;1.80;;
24357;SDS011;13668;52.154;5.580;2022-12-29T10:00:05;7.18;;;1.73;;
24357;SDS011;13668;52.154;5.580;2022-12-29T10:02:34;9.35;;;2.00;;
24357;SDS011;13668;52.154;5.580;2022-12-29T10:05:03;12.73;;;2.23;;
24357;SDS011;13668;52.154;5.580;2022-12-29T10:07:40;10.88;;;2.40;;
24357;SDS011;13668;52.154;5.580;2022-12-29T10:10:23;8.27;;;2.13;;
24357;SDS011;13668;52.154;5.580;2022-12-29T10:15:46;9.65;;;2.33;;
24357;SDS011;13668;52.154;5.580;2022-12-29T10:23:44;9.52;;;2.00;;
24357;SDS011;13668;52.154;5.580;2022-12-29T10:26:15;6.22;;;2.05;;
24357;SDS011;13668;52.154;5.580;2022-12-29T10:28:44;9.93;;;1.92;;
24357;SDS011;13668;52.154;5.580;2022-12-29T10:31:25;7.68;;;2.63;;
24357;SDS011;13668;52.154;5.580;2022-12-29T10:33:53;8.68;;;2.58;;
24357;SDS011;13668;52.154;5.580;2022-12-29T10:36:27;5.63;;;2.40;;
24357;SDS011;13668;52.154;5.580;2022-12-29T10:39:03;8.23;;;2.15;;
24357;SDS011;13668;52.154;5.580;2022-12-29T10:41:41;8.43;;;1.90;;
24357;SDS011;13668;52.154;5.580;2022-12-29T10:44:13;6.22;;;2.10;;
24357;SDS011;13668;52.154;5.580;2022-12-29T10:46:40;8.50;;;2.00;;
24357;SDS011;13668;52.154;5.580;2022-12-29T10:49:11;6.15;;;2.45;;
24357;SDS011;13668;52.154;5.580;2022-12-29T10:51:39;4.30;;;1.85;;
24357;SDS011;13668;52.154;5.580;2022-12-29T10:56:42;7.30;;;2.42;;
24357;SDS011;13668;52.154;5.580;2022-12-29T10:59:14;11.48;;;2.67;;
24357;SDS011;13668;52.154;5.580;2022-12-29T11:01:46;12.10;;;2.92;;
24357;SDS011;13668;52.154;5.580;2022-12-29T11:04:36;11.20;;;3.38;;
24357;SDS011;13668;52.154;5.580;2022-12-29T11:07:03;11.20;;;3.40;;
24357;SDS011;13668;52.154;5.580;2022-12-29T11:09:32;10.27;;;3.08;;
24357;SDS011;13668;52.154;5.580;2022-12-29T11:11:59;11.00;;;3.75;;
24357;SDS011;13668;52.154;5.580;2022-12-29T11:14:29;10.10;;;3.55;;
24357;SDS011;13668;52.154;5.580;2022-12-29T11:17:00;11.77;;;3.90;;
24357;SDS011;13668;52.154;5.580;2022-12-29T11:19:27;13.80;;;4.25;;
24357;SDS011;13668;52.154;5.580;2022-12-29T11:21:54;14.15;;;3.85;;
24357;SDS011;13668;52.154;5.580;2022-12-29T11:24:24;13.68;;;4.07;;
24357;SDS011;13668;52.154;5.580;2022-12-29T11:26:52;10.60;;;3.45;;
24357;SDS011;13668;52.154;5.580;2022-12-29T11:29:27;10.73;;;3.63;;
24357;SDS011;13668;52.154;5.580;2022-12-29T11:31:54;10.10;;;3.60;;
24357;SDS011;13668;52.154;5.580;2022-12-29T11:34:33;15.13;;;4.00;;
24357;SDS011;13668;52.154;5.580;2022-12-29T11:37:03;17.08;;;3.70;;
24357;SDS011;13668;52.154;5.580;2022-12-29T11:39:36;15.75;;;5.07;;
24357;SDS011;13668;52.154;5.580;2022-12-29T11:42:03;16.00;;;4.25;;
24357;SDS011;13668;52.154;5.580;2022-12-29T11:44:41;13.68;;;3.72;;
24357;SDS011;13668;52.154;5.580;2022-12-29T11:47:08;9.88;;;3.55;;
24357;SDS011;13668;52.154;5.580;2022-12-29T11:49:35;13.63;;;3.38;;
24357;SDS011;13668;52.154;5.580;2022-12-29T11:52:01;14.00;;;3.40;;
24357;SDS011;13668;52.154;5.580;2022-12-29T11:54:28;11.45;;;3.20;;
24357;SDS011;13668;52.154;5.580;2022-12-29T11:56:58;16.52;;;3.53;;
24357;SDS011;13668;52.154;5.580;2022-12-29T11:59:39;14.35;;;2.95;;
24357;SDS011;13668;52.154;5.580;2022-12-29T12:04:51;11.77;;;4.10;;
24357;SDS011;13668;52.154;5.580;2022-12-29T12:07:24;13.43;;;2.90;;
24357;SDS011;13668;52.154;5.580;2022-12-29T12:09:57;9.73;;;2.75;;
24357;SDS011;13668;52.154;5.580;2022-12-29T12:12:34;12.02;;;3.08;;
24357;SDS011;13668;52.154;5.580;2022-12-29T12:15:01;8.43;;;2.42;;
24357;SDS011;13668;52.154;5.580;2022-12-29T12:22:38;14.43;;;3.80;;
24357;SDS011;13668;52.154;5.580;2022-12-29T12:25:11;12.48;;;3.10;;
24357;SDS011;13668;52.154;5.580;2022-12-29T12:28:26;9.30;;;3.00;;
24357;SDS011;13668;52.154;5.580;2022-12-29T12:30:25;16.35;;;3.67;;
24357;SDS011;13668;52.154;5.580;2022-12-29T12:32:59;14.48;;;3.92;;
24357;SDS011;13668;52.154;5.580;2022-12-29T12:51:20;15.40;;;3.67;;
24357;SDS011;13668;52.154;5.580;2022-12-29T12:56:37;11.35;;;3.67;;
24357;SDS011;13668;52.154;5.580;2022-12-29T13:01:59;16.17;;;3.97;;
24357;SDS011;13668;52.154;5.580;2022-12-29T13:04:32;15.60;;;4.32;;
24357;SDS011;13668;52.154;5.580;2022-12-29T13:15:02;13.80;;;3.53;;
24357;SDS011;13668;52.154;5.580;2022-12-29T13:20:07;14.10;;;4.55;;
24357;SDS011;13668;52.154;5.580;2022-12-29T13:22:41;13.68;;;3.63;;
24357;SDS011;13668;52.154;5.580;2022-12-29T13:30:30;14.95;;;4.40;;
24357;SDS011;13668;52.154;5.580;2022-12-29T13:33:15;14.65;;;3.78;;
24357;SDS011;13668;52.154;5.580;2022-12-29T13:40:49;14.18;;;3.85;;
24357;SDS011;13668;52.154;5.580;2022-12-29T13:43:19;13.27;;;3.97;;
24357;SDS011;13668;52.154;5.580;2022-12-29T13:45:45;10.90;;;3.78;;
24357;SDS011;13668;52.154;5.580;2022-12-29T13:48:20;10.05;;;3.90;;
24357;SDS011;13668;52.154;5.580;2022-12-29T13:50:52;15.32;;;4.55;;
24357;SDS011;13668;52.154;5.580;2022-12-29T13:58:37;16.65;;;4.60;;
24357;SDS011;13668;52.154;5.580;2022-12-29T14:01:19;15.63;;;4.55;;
24357;SDS011;13668;52.154;5.580;2022-12-29T14:06:24;12.60;;;3.35;;
24357;SDS011;13668;52.154;5.580;2022-12-29T14:08:57;11.75;;;3.92;;
24357;SDS011;13668;52.154;5.580;2022-12-29T14:11:29;9.88;;;4.15;;
24357;SDS011;13668;52.154;5.580;2022-12-29T14:13:56;13.60;;;4.07;;
24357;SDS011;13668;52.154;5.580;2022-12-29T14:16:27;16.58;;;4.82;;
24357;SDS011;13668;52.154;5.580;2022-12-29T14:18:54;12.82;;;3.97;;
24357;SDS011;13668;52.154;5.580;2022-12-29T14:21:22;13.57;;;3.40;;
24357;SDS011;13668;52.154;5.580;2022-12-29T14:23:53;12.77;;;3.30;;
24357;SDS011;13668;52.154;5.580;2022-12-29T14:28:54;11.50;;;2.92;;
24357;SDS011;13668;52.154;5.580;2022-12-29T14:36:37;11.10;;;2.08;;
24357;SDS011;13668;52.154;5.580;2022-12-29T14:39:04;5.60;;;1.65;;
24357;SDS011;13668;52.154;5.580;2022-12-29T14:41:59;6.95;;;3.30;;
24357;SDS011;13668;52.154;5.580;2022-12-29T14:44:26;6.05;;;2.10;;
24357;SDS011;13668;52.154;5.580;2022-12-29T14:49:22;3.67;;;1.00;;
24357;SDS011;13668;52.154;5.580;2022-12-29T14:51:50;5.03;;;1.20;;
24357;SDS011;13668;52.154;5.580;2022-12-29T14:54:34;4.03;;;0.90;;
24357;SDS011;13668;52.154;5.580;2022-12-29T14:57:06;3.10;;;1.00;;
24357;SDS011;13668;52.154;5.580;2022-12-29T14:59:33;3.03;;;1.02;;
24357;SDS011;13668;52.154;5.580;2022-12-29T15:02:01;3.95;;;1.50;;
24357;SDS011;13668;52.154;5.580;2022-12-29T15:04:32;7.60;;;1.85;;
24357;SDS011;13668;52.154;5.580;2022-12-29T15:06:59;5.10;;;1.20;;
24357;SDS011;13668;52.154;5.580;2022-12-29T15:09:33;6.80;;;2.17;;
24357;SDS011;13668;52.154;5.580;2022-12-29T15:12:05;4.45;;;2.00;;
24357;SDS011;13668;52.154;5.580;2022-12-29T15:14:38;5.57;;;1.45;;
24357;SDS011;13668;52.154;5.580;2022-12-29T15:17:21;4.45;;;1.58;;
24357;SDS011;13668;52.154;5.580;2022-12-29T15:19:49;4.93;;;1.90;;
24357;SDS011;13668;52.154;5.580;2022-12-29T15:22:17;4.68;;;1.90;;
24357;SDS011;13668;52.154;5.580;2022-12-29T15:24:44;4.80;;;2.17;;
24357;SDS011;13668;52.154;5.580;2022-12-29T15:27:14;9.20;;;2.75;;
24357;SDS011;13668;52.154;5.580;2022-12-29T15:29:41;4.70;;;2.17;;
24357;SDS011;13668;52.154;5.580;2022-12-29T15:32:21;8.05;;;3.03;;
24357;SDS011;13668;52.154;5.580;2022-12-29T15:34:49;11.38;;;3.22;;
24357;SDS011;13668;52.154;5.580;2022-12-29T15:37:23;9.73;;;2.85;;
24357;SDS011;13668;52.154;5.580;2022-12-29T15:39:53;10.38;;;3.28;;
24357;SDS011;13668;52.154;5.580;2022-12-29T15:42:25;8.50;;;3.42;;
24357;SDS011;13668;52.154;5.580;2022-12-29T15:44:53;6.72;;;3.28;;
24357;SDS011;13668;52.154;5.580;2022-12-29T15:47:20;8.98;;;3.30;;
24357;SDS011;13668;52.154;5.580;2022-12-29T15:49:47;11.10;;;3.83;;
24357;SDS011;13668;52.154;5.580;2022-12-29T15:52:17;7.53;;;3.47;;
24357;SDS011;13668;52.154;5.580;2022-12-29T15:54:44;8.13;;;3.80;;
24357;SDS011;13668;52.154;5.580;2022-12-29T15:57:23;5.80;;;4.05;;
24357;SDS011;13668;52.154;5.580;2022-12-29T15:59:49;9.80;;;3.97;;
24357;SDS011;13668;52.154;5.580;2022-12-29T16:02:16;7.10;;;4.22;;
24357;SDS011;13668;52.154;5.580;2022-12-29T16:04:42;9.30;;;3.40;;
24357;SDS011;13668;52.154;5.580;2022-12-29T16:09:53;11.35;;;2.80;;
24357;SDS011;13668;52.154;5.580;2022-12-29T16:12:20;7.00;;;2.30;;
24357;SDS011;13668;52.154;5.580;2022-12-29T16:14:47;9.13;;;2.88;;
24357;SDS011;13668;52.154;5.580;2022-12-29T16:17:21;6.85;;;2.08;;
24357;SDS011;13668;52.154;5.580;2022-12-29T16:19:51;8.23;;;2.72;;
24357;SDS011;13668;52.154;5.580;2022-12-29T16:22:26;8.40;;;2.38;;
24357;SDS011;13668;52.154;5.580;2022-12-29T16:24:55;10.00;;;2.50;;
24357;SDS011;13668;52.154;5.580;2022-12-29T16:27:22;10.32;;;2.58;;
24357;SDS011;13668;52.154;5.580;2022-12-29T16:29:50;5.80;;;2.20;;
24357;SDS011;13668;52.154;5.580;2022-12-29T16:32:27;6.80;;;2.53;;
24357;SDS011;13668;52.154;5.580;2022-12-29T16:35:10;6.20;;;2.00;;
24357;SDS011;13668;52.154;5.580;2022-12-29T16:37:37;11.70;;;2.75;;
24357;SDS011;13668;52.154;5.580;2022-12-29T16:42:49;6.13;;;1.70;;
24357;SDS011;13668;52.154;5.580;2022-12-29T16:47:47;5.22;;;1.77;;
24357;SDS011;13668;52.154;5.580;2022-12-29T16:50:17;8.25;;;1.63;;
24357;SDS011;13668;52.154;5.580;2022-12-29T16:52:46;4.05;;;1.70;;
24357;SDS011;13668;52.154;5.580;2022-12-29T16:55:17;7.90;;;1.65;;
24357;SDS011;13668;52.154;5.580;2022-12-29T16:57:44;6.05;;;1.70;;
24357;SDS011;13668;52.154;5.580;2022-12-29T17:00:21;4.15;;;2.33;;
24357;SDS011;13668;52.154;5.580;2022-12-29T17:02:51;7.57;;;1.73;;
24357;SDS011;13668;52.154;5.580;2022-12-29T17:05:18;3.92;;;1.42;;
24357;SDS011;13668;52.154;5.580;2022-12-29T17:07:45;6.15;;;1.60;;